^^

Meteo Aereoporti Centro-Italia

 

 
LIRZ - Perugia S.Egidio (208 m.)
Dati ricevuti: 24/09/2020 13:20
Sereno
Sereno
 Vento da S
Vento: S 7 km/h
TEMPERATURA: 24°C
P.to di Rugiada: 17°C
Umidità: 65%
Pressione: 1014 hPa
Nuvole: Sereno
Visibilità: 10 km
2020/09/24 11:20 LIRZ 241120Z AUTO 17004KT 130V230 9999 NCD 24/17 Q1014
 
LIPY - Ancona Falconara (12 m.)
Dati ricevuti: 24/09/2020 13:20
Sereno
Sereno
 Vento da SW
Vento: SW 13 km/h
TEMPERATURA: 28°C
Indice di Calore: 28°C
P.to di Rugiada: 14°C
Umidità: 42%
Pressione: 1012 hPa
Nuvole: Sereno
Visibilità: 10 km
2020/09/24 11:20 LIPY 241120Z AUTO 22007KT 160V250 9999 NCD 28/14 Q1012
 
LIPR - Rimini Miramare (12 m.)
Dati ricevuti: 24/09/2020 13:20
Sereno
Sereno
 Vento da SW
Vento: SW 17 km/h
TEMPERATURA: 27°C
Indice di Calore: 27°C
P.to di Rugiada: 15°C
Umidità: 48%
Pressione: 1011 hPa
Condizioni generali: Sereno
Visibilità: oltre 10 km
2020/09/24 11:20 LIPR 241120Z 22009KT CAVOK 27/15 Q1011
 
LIRF - Roma Fiumicino (2 m.)
Dati ricevuti: 24/09/2020 13:20
Poco nuvoloso
Poco nuvoloso
 Vento da S
Vento: S 13 km/h
TEMPERATURA: 27°C
Indice di Calore: 29°C
P.to di Rugiada: 20°C
Umidità: 66%
Pressione: 1013 hPa
Nuvole: Poco nuvoloso
Visibilità: 10 km
Dettagli Nuvole: Poco nuvoloso 914 m
2020/09/24 11:20 LIRF 241120Z 17007KT 140V200 9999 SCT030 27/20 Q1013 TEMPO TSRA
 
LIRA - Roma Ciampino (129 m.)
Dati ricevuti: 24/09/2020 13:20
Poco nuvoloso
Poco nuvoloso
 Vento da SSW
Vento: SSW 22 km/h
TEMPERATURA: 26°C
P.to di Rugiada: 17°C
Umidità: 58%
Pressione: 1014 hPa
Nuvole: Poco nuvoloso
Visibilità: 10 km
Dettagli Nuvole: Qualche nuvola 762 m
Poco nuvoloso 914 m
2020/09/24 11:20 LIRA 241120Z 20012KT 9999 FEW025TCU SCT030 26/17 Q1014
 
LIRU - Roma Urbe (17 m.)
Dati ricevuti: 24/09/2020 12:50
Pioggia, Poco nuvoloso
Pioggia, Poco nuvoloso
 Vento da direzione variabile
Vento: direzione variabile 6 km/h
TEMPERATURA: 23°C
P.to di Rugiada: 20°C
Umidità: 83%
Pressione: 1014 hPa
Condizioni generali: Pioggia
Nuvole: Poco nuvoloso
Visibilità: 10 km
Dettagli Nuvole: Poco nuvoloso 457 m
2020/09/24 10:50 LIRU 241050Z VRB03KT 9999 RA SCT015 23/20 Q1014
 
LIVF - Frontone (570 m.)
Dati ricevuti: 24/09/2020 05:55
Dati non aggiornati
Qualche nuvola
Qualche nuvola
 Vento da SSW
Vento: SSW 11 km/h
TEMPERATURA: 17°C
P.to di Rugiada: 13°C
Umidità: 77%
Pressione: 1011 hPa
Nuvole: Qualche nuvola
Visibilità: 10 km
Dettagli Nuvole: Qualche nuvola 884 m
2020/09/24 03:55 LIVF 240355Z 21006KT 9999 FEW029 17/13 Q1011
 
LIRQ - Firenze Peretola (40 m.)
Dati ricevuti: 24/09/2020 13:20
Poco nuvoloso
Poco nuvoloso
 Vento da NNW
Vento: NNW 7 km/h
TEMPERATURA: 23°C
P.to di Rugiada: 19°C
Umidità: 78%
Pressione: 1012 hPa
Nuvole: Poco nuvoloso
Visibilità: 10 km
Dettagli Nuvole: Qualche nuvola 1219 m
Poco nuvoloso 2438 m
2020/09/24 11:20 LIRQ 241120Z 33004KT 260V030 9999 FEW040 SCT080 23/19 Q1012
 
LIBP - Pescara (10 m.)
Dati ricevuti: 24/09/2020 13:20
Sereno
Sereno
 Vento da ENE
Vento: ENE 19 km/h
TEMPERATURA: 28°C
Indice di Calore: 27°C
P.to di Rugiada: 13°C
Umidità: 40%
Pressione: 1012 hPa
Nuvole: Sereno
Visibilità: 10 km
2020/09/24 11:20 LIBP 241120Z AUTO 07010KT 9999 NCD 28/13 Q1012
 
LIRV - Viterbo (300 m.)
Dati ricevuti: 24/09/2020 12:55
Qualche nuvola
Qualche nuvola
 Vento da SW
Vento: SW 13 km/h
TEMPERATURA: 23°C
P.to di Rugiada: 18°C
Umidità: 74%
Pressione: 1014 hPa
Nuvole: Qualche nuvola
Visibilità: 10 km
Dettagli Nuvole: Molto nuvoloso 732 m
Qualche nuvola 1067 m
2020/09/24 10:55 LIRV 241055Z 22007KT 9999 BKN024 FEW035TCU 23/18 Q1014
 
LIQN - Rieti (389 m.)
Dati ricevuti: 24/09/2020 12:50
Qualche nuvola
Qualche nuvola
 Vento da direzione variabile
Vento: direzione variabile 2 km/h
TEMPERATURA: 23°C
P.to di Rugiada: 16°C
Umidità: 65%
Pressione: 1014 hPa
Nuvole: Qualche nuvola
Visibilità: 9 km
Dettagli Nuvole: Qualche nuvola 1372 m
2020/09/24 10:50 LIQN 241050Z VRB01KT 9000 FEW045TCU 23/16 Q1014
 
LIRG - Guidonia -RM- (88 m.)
Dati ricevuti: 24/09/2020 12:55
Poco nuvoloso
Poco nuvoloso
 Vento da NNE
Vento: NNE 7 km/h
TEMPERATURA: 23°C
P.to di Rugiada: 18°C
Umidità: 74%
Pressione: 1014 hPa
Nuvole: Poco nuvoloso
Visibilità: 10 km
Dettagli Nuvole: Molto nuvoloso 762 m
Poco nuvoloso 914 m
2020/09/24 10:55 LIRG 241055Z 02004KT 9999 BKN025TCU SCT030 23/18 Q1014
 
LIRK - Terminillo -RI-(1874 m.)
Dati ricevuti: 24/09/2020 12:55

 Vento da direzione variabile
Vento: direzione variabile 7 km/h
TEMPERATURA: 10°C
Raffreddamento da Vento: 9°C
P.to di Rugiada: 9°C
Umidità: 94%
Pressione: 1021 hPa
2020/09/24 10:55 LIRK 241055Z AUTO VRB04KT //// 10/09 Q1021
 
LIPK - Forlì (27 m.)
Dati ricevuti: 24/09/2020 12:50
Poco nuvoloso
Poco nuvoloso
 Vento da direzione variabile
Vento: direzione variabile 2 km/h
TEMPERATURA: 29°C
Indice di Calore: 29°C
P.to di Rugiada: 18°C
Umidità: 51%
Pressione: 1011 hPa
Nuvole: Poco nuvoloso
Visibilità: 10 km
Dettagli Nuvole: Poco nuvoloso 914 m
2020/09/24 10:50 LIPK 241050Z VRB01KT 9999 SCT030 29/18 Q1011
 
LIRS - Grosseto (5 m.)
Dati ricevuti: 24/09/2020 12:55
Poco nuvoloso
Poco nuvoloso
 Vento da SSE
Vento: SSE 15 km/h
TEMPERATURA: 26°C
P.to di Rugiada: 18°C
Umidità: 61%
Pressione: 1012 hPa
Nuvole: Poco nuvoloso
Visibilità: 10 km
Dettagli Nuvole: Poco nuvoloso 671 m
2020/09/24 10:55 LIRS 241055Z 15008KT 9999 SCT022 26/18 Q1012
 
LIRP - Pisa S.Giusto (2 m.)
Dati ricevuti: 24/09/2020 13:15
Poco nuvoloso
Poco nuvoloso
 Vento da SE
Vento: SE 11 km/h
TEMPERATURA: 24°C
P.to di Rugiada: 20°C
Umidità: 78%
Pressione: 1012 hPa
Nuvole: Poco nuvoloso
Visibilità: 10 km
Dettagli Nuvole: Qualche nuvola 610 m
Poco nuvoloso 1219 m
2020/09/24 11:15 LIRP 241115Z 13006KT 9999 FEW020 SCT040 24/20 Q1012 NOSIG